createdAt,value
2022-11-23T00:01:18.331Z,9.20
2022-11-23T00:03:46.856Z,9.30
2022-11-23T00:06:13.848Z,9.30
2022-11-23T00:08:42.786Z,9.40
2022-11-23T00:11:10.183Z,9.40
2022-11-23T00:13:39.323Z,9.40
2022-11-23T00:16:07.743Z,9.30
2022-11-23T00:18:35.010Z,9.40
2022-11-23T00:21:11.344Z,9.40
2022-11-23T00:23:38.210Z,9.40
2022-11-23T00:26:08.553Z,9.40
2022-11-23T00:28:38.684Z,9.40
2022-11-23T00:31:07.181Z,9.40
2022-11-23T00:33:37.078Z,9.40
2022-11-23T00:36:05.915Z,9.40
2022-11-23T00:38:35.347Z,9.30
2022-11-23T00:41:05.076Z,9.30
2022-11-23T00:43:32.243Z,9.40
2022-11-23T00:46:15.433Z,9.40
2022-11-23T00:48:46.485Z,9.40
2022-11-23T00:51:16.099Z,9.40
2022-11-23T00:53:45.536Z,9.40
2022-11-23T00:56:14.836Z,9.40
2022-11-23T00:58:41.623Z,9.40
2022-11-23T01:01:13.996Z,9.40
2022-11-23T01:03:45.956Z,9.40
2022-11-23T01:06:15.127Z,9.40
2022-11-23T01:08:42.255Z,9.50
2022-11-23T01:11:11.375Z,9.80
2022-11-23T01:13:40.745Z,9.40
2022-11-23T01:16:22.281Z,9.50
2022-11-23T01:18:54.775Z,9.40
2022-11-23T01:21:24.122Z,9.40
2022-11-23T01:23:53.458Z,9.40
2022-11-23T01:26:21.050Z,9.40
2022-11-23T01:28:47.960Z,9.50
2022-11-23T01:31:17.764Z,9.40
2022-11-23T01:33:47.362Z,9.40
2022-11-23T01:36:22.205Z,9.40
2022-11-23T01:38:50.054Z,9.40
2022-11-23T01:41:19.691Z,9.40
2022-11-23T01:43:46.776Z,9.30
2022-11-23T01:46:18.638Z,9.40
2022-11-23T01:48:45.275Z,9.40
2022-11-23T01:51:17.609Z,9.40
2022-11-23T01:53:45.983Z,9.40
2022-11-23T01:56:19.877Z,9.40
2022-11-23T01:58:50.764Z,9.30
2022-11-23T02:01:17.497Z,9.40
2022-11-23T02:03:49.168Z,9.40
2022-11-23T02:06:19.004Z,9.40
2022-11-23T02:08:47.270Z,9.40
2022-11-23T02:11:18.466Z,9.40
2022-11-23T02:13:47.332Z,9.40
2022-11-23T02:16:16.907Z,9.40
2022-11-23T02:18:46.924Z,9.40
2022-11-23T02:21:13.991Z,9.40
2022-11-23T02:23:45.983Z,9.30
2022-11-23T02:26:27.839Z,9.40
2022-11-23T02:28:54.453Z,9.40
2022-11-23T02:31:21.218Z,9.40
2022-11-23T02:33:50.353Z,9.40
2022-11-23T02:36:34.325Z,9.50
2022-11-23T02:39:03.367Z,9.40
2022-11-23T02:41:55.379Z,9.50
2022-11-23T02:44:42.548Z,9.50
2022-11-23T02:47:11.047Z,9.50
2022-11-23T02:49:40.892Z,9.50
2022-11-23T02:52:08.774Z,9.50
2022-11-23T02:54:35.964Z,9.50
2022-11-23T02:57:05.295Z,9.50
2022-11-23T02:59:32.814Z,9.60
2022-11-23T03:02:04.385Z,9.50
2022-11-23T03:04:31.462Z,9.50
2022-11-23T03:06:58.839Z,9.50
2022-11-23T03:09:26.309Z,9.50
2022-11-23T03:11:56.005Z,9.40
2022-11-23T03:14:25.845Z,9.50
2022-11-23T03:16:52.589Z,9.50
2022-11-23T03:19:19.259Z,9.50
2022-11-23T03:21:48.263Z,9.50
2022-11-23T03:24:17.405Z,9.50
2022-11-23T03:26:44.071Z,9.40
2022-11-23T03:29:10.705Z,9.40
2022-11-23T03:31:37.413Z,9.40
2022-11-23T03:34:04.206Z,9.30
2022-11-23T03:36:33.157Z,9.30
2022-11-23T03:38:59.810Z,9.30
2022-11-23T03:41:28.989Z,9.30
2022-11-23T03:43:55.649Z,9.30
2022-11-23T03:46:22.292Z,9.30
2022-11-23T03:48:48.955Z,9.30
2022-11-23T03:51:18.016Z,9.30
2022-11-23T03:53:47.353Z,9.40
2022-11-23T03:56:14.213Z,9.40
2022-11-23T03:58:43.357Z,9.30
2022-11-23T04:01:12.459Z,9.40
2022-11-23T04:03:39.175Z,9.30
2022-11-23T04:06:08.418Z,9.40
2022-11-23T04:08:35.135Z,9.30
2022-11-23T04:11:01.825Z,9.20
2022-11-23T04:13:30.748Z,9.40
2022-11-23T04:15:57.377Z,9.30
2022-11-23T04:18:24.035Z,9.20
2022-11-23T04:20:50.684Z,9.30
2022-11-23T04:23:19.580Z,9.30
2022-11-23T04:25:46.759Z,9.30
2022-11-23T04:28:13.405Z,9.30
2022-11-23T04:30:40.043Z,9.20
2022-11-23T04:33:06.755Z,9.20
2022-11-23T04:35:34.205Z,9.20
2022-11-23T04:38:01.712Z,9.20
2022-11-23T04:40:29.118Z,9.20
2022-11-23T04:43:00.347Z,9.20
2022-11-23T04:45:28.449Z,9.30
2022-11-23T04:47:57.541Z,9.20
2022-11-23T04:50:24.171Z,9.30
2022-11-23T04:52:53.063Z,9.20
2022-11-23T04:55:19.741Z,9.20
2022-11-23T04:57:48.561Z,9.20
2022-11-23T05:00:15.818Z,9.20
2022-11-23T05:02:42.608Z,9.20
2022-11-23T05:05:09.542Z,9.20
2022-11-23T05:07:36.250Z,9.20
2022-11-23T05:10:04.495Z,9.10
2022-11-23T05:12:31.197Z,9.10
2022-11-23T05:14:57.864Z,9.00
2022-11-23T05:17:24.512Z,9.00
2022-11-23T05:19:51.285Z,9.00
2022-11-23T05:22:20.140Z,8.90
2022-11-23T05:24:46.994Z,8.90
2022-11-23T05:27:13.710Z,8.90
2022-11-23T05:29:45.354Z,8.90
2022-11-23T05:32:12.037Z,9.00
2022-11-23T05:34:38.705Z,8.90
2022-11-23T05:37:05.488Z,8.90
2022-11-23T05:39:32.544Z,8.90
2022-11-23T05:42:01.954Z,9.00
2022-11-23T05:44:31.060Z,9.00
2022-11-23T05:47:02.842Z,8.90
2022-11-23T05:49:29.790Z,9.00
2022-11-23T05:51:56.973Z,9.00
2022-11-23T05:54:23.646Z,9.00
2022-11-23T05:56:50.326Z,9.00
2022-11-23T05:59:17.111Z,9.00
2022-11-23T06:01:46.238Z,9.00
2022-11-23T06:04:13.387Z,8.90
2022-11-23T06:06:40.270Z,9.00
2022-11-23T06:09:09.383Z,9.10
2022-11-23T06:11:36.082Z,9.00
2022-11-23T06:14:06.193Z,9.10
2022-11-23T06:16:35.511Z,9.10
2022-11-23T06:19:02.329Z,9.00
2022-11-23T06:21:31.525Z,9.10
2022-11-23T06:23:58.336Z,9.10
2022-11-23T06:26:25.863Z,9.10
2022-11-23T06:28:52.609Z,9.10
2022-11-23T06:31:19.255Z,9.10
2022-11-23T06:33:45.914Z,9.10
2022-11-23T06:36:12.773Z,9.20
2022-11-23T06:38:41.932Z,9.10
2022-11-23T06:41:08.624Z,9.10
2022-11-23T06:43:35.285Z,9.20
2022-11-23T06:46:05.682Z,9.20
2022-11-23T06:48:32.768Z,9.10
2022-11-23T06:51:02.453Z,9.20
2022-11-23T06:53:30.111Z,9.10
2022-11-23T06:56:02.963Z,9.20
2022-11-23T06:58:29.860Z,9.20
2022-11-23T07:01:04.923Z,9.20
2022-11-23T07:03:32.128Z,9.20
2022-11-23T07:06:04.232Z,9.30
2022-11-23T07:08:30.906Z,9.30
2022-11-23T07:11:08.967Z,9.30
2022-11-23T07:13:37.902Z,9.30
2022-11-23T07:16:07.378Z,9.30
2022-11-23T07:18:34.309Z,9.30
2022-11-23T07:21:03.199Z,9.30
2022-11-23T07:23:29.905Z,9.30
2022-11-23T07:25:56.614Z,9.30
2022-11-23T07:28:23.325Z,9.30
2022-11-23T07:30:51.859Z,9.30
2022-11-23T07:33:20.895Z,9.30
2022-11-23T07:35:50.019Z,9.20
2022-11-23T07:38:21.109Z,9.30
2022-11-23T07:40:50.582Z,9.30
2022-11-23T07:43:17.388Z,9.40
2022-11-23T07:45:44.567Z,9.30
2022-11-23T07:48:14.045Z,9.20
2022-11-23T07:50:43.043Z,9.20
2022-11-23T07:53:10.633Z,9.30
2022-11-23T07:55:39.537Z,9.30
2022-11-23T07:58:06.504Z,9.30
2022-11-23T08:00:33.267Z,9.40
2022-11-23T08:05:46.980Z,9.40
2022-11-23T08:08:13.736Z,9.40
2022-11-23T08:10:47.164Z,9.40
2022-11-23T08:13:16.676Z,9.50
2022-11-23T08:15:43.362Z,9.40
2022-11-23T08:18:12.779Z,9.40
2022-11-23T08:20:39.475Z,9.50
2022-11-23T08:28:34.216Z,9.50
2022-11-23T08:31:11.209Z,9.50
2022-11-23T08:33:39.104Z,9.50
2022-11-23T08:36:08.624Z,9.90
2022-11-23T08:38:35.529Z,9.40
2022-11-23T08:41:03.541Z,9.50
2022-11-23T08:43:30.265Z,9.60
2022-11-23T08:46:05.698Z,9.70
2022-11-23T08:48:39.473Z,9.60
2022-11-23T08:51:06.722Z,9.60
2022-11-23T08:53:35.759Z,9.70
2022-11-23T08:56:04.558Z,9.60
2022-11-23T08:58:32.099Z,9.60
2022-11-23T09:00:58.772Z,9.50
2022-11-23T09:03:25.516Z,9.50
2022-11-23T09:05:53.501Z,9.50
2022-11-23T09:08:22.525Z,9.40
2022-11-23T09:10:51.321Z,9.40
2022-11-23T09:13:18.009Z,9.50
2022-11-23T09:15:44.706Z,9.60
2022-11-23T09:18:14.075Z,9.60
2022-11-23T09:20:40.834Z,9.60
2022-11-23T09:23:12.363Z,9.60
2022-11-23T09:25:42.779Z,9.60
2022-11-23T09:28:09.527Z,9.70
2022-11-23T09:30:38.535Z,9.70
2022-11-23T09:33:08.286Z,9.80
2022-11-23T09:35:39.410Z,9.80
2022-11-23T09:38:09.146Z,9.80
2022-11-23T09:40:40.802Z,9.80
2022-11-23T09:43:31.332Z,9.80
2022-11-23T09:46:08.550Z,9.90
2022-11-23T09:48:44.087Z,10.00
2022-11-23T09:51:20.500Z,10.00
2022-11-23T09:53:53.018Z,10.00
2022-11-23T09:56:41.379Z,10.00
2022-11-23T09:59:24.018Z,10.00
2022-11-23T10:01:50.847Z,10.10
2022-11-23T10:04:19.768Z,10.10
2022-11-23T10:06:55.077Z,10.30
2022-11-23T10:09:46.297Z,10.30
2022-11-23T10:12:21.926Z,10.30
2022-11-23T10:15:03.325Z,10.30
2022-11-23T10:17:38.905Z,10.50
2022-11-23T10:23:01.152Z,10.70
2022-11-23T10:25:57.124Z,10.70
2022-11-23T10:28:32.581Z,10.70
2022-11-23T10:31:15.137Z,10.60
2022-11-23T10:34:04.315Z,10.60
2022-11-23T10:36:30.982Z,10.80
2022-11-23T10:39:00.293Z,10.70
2022-11-23T10:41:31.656Z,10.80
2022-11-23T10:44:01.179Z,10.70
2022-11-23T10:46:32.176Z,10.70
2022-11-23T10:49:20.058Z,10.80
2022-11-23T10:51:58.833Z,10.80
2022-11-23T10:54:45.838Z,10.80
2022-11-23T10:57:28.000Z,10.70
2022-11-23T11:00:01.031Z,10.80
2022-11-23T11:02:28.700Z,10.70
2022-11-23T11:08:33.262Z,10.60
2022-11-23T11:11:21.347Z,10.60
2022-11-23T11:13:49.355Z,10.60
2022-11-23T11:16:33.438Z,10.50
2022-11-23T11:19:20.437Z,10.60
2022-11-23T11:21:47.408Z,10.60
2022-11-23T11:24:25.458Z,10.70
2022-11-23T11:27:14.416Z,10.70
2022-11-23T11:29:46.024Z,10.80
2022-11-23T11:32:24.676Z,10.80
2022-11-23T11:35:02.922Z,10.80
2022-11-23T11:37:51.016Z,10.80
2022-11-23T11:40:28.944Z,10.80
2022-11-23T11:43:19.534Z,10.70
2022-11-23T11:46:13.542Z,10.80
2022-11-23T11:48:53.188Z,10.80
2022-11-23T11:51:28.364Z,10.70
2022-11-23T11:54:13.299Z,10.70
2022-11-23T11:56:44.131Z,10.70
2022-11-23T11:59:24.117Z,10.90
2022-11-23T12:01:53.147Z,10.80
2022-11-23T12:04:53.902Z,10.90
2022-11-23T12:07:50.055Z,11.00
2022-11-23T12:10:26.658Z,11.10
2022-11-23T12:12:58.936Z,11.10
2022-11-23T12:15:48.873Z,11.20
2022-11-23T12:18:43.783Z,11.20
2022-11-23T12:21:31.368Z,11.30
2022-11-23T12:24:22.753Z,11.20
2022-11-23T12:27:11.228Z,11.20
2022-11-23T12:29:43.253Z,11.20
2022-11-23T12:32:23.986Z,11.30
2022-11-23T12:34:59.756Z,11.20
2022-11-23T12:37:38.472Z,11.20
2022-11-23T12:40:27.453Z,11.10
2022-11-23T12:43:10.479Z,11.00
2022-11-23T12:45:47.323Z,10.90
2022-11-23T12:48:44.914Z,10.80
2022-11-23T12:51:21.239Z,10.80
2022-11-23T12:54:02.556Z,10.70
2022-11-23T12:57:11.001Z,10.80
2022-11-23T12:59:42.239Z,10.80
2022-11-23T13:02:33.553Z,10.80
2022-11-23T13:05:05.789Z,10.90
2022-11-23T13:08:02.832Z,10.90
2022-11-23T13:11:13.598Z,11.00
2022-11-23T13:13:59.288Z,11.00
2022-11-23T13:16:36.993Z,11.00
2022-11-23T13:19:47.160Z,11.10
2022-11-23T13:22:17.817Z,11.20
2022-11-23T13:25:15.131Z,11.20
2022-11-23T13:28:03.826Z,11.10
2022-11-23T13:33:38.008Z,11.00
2022-11-23T13:36:10.349Z,10.90
2022-11-23T13:38:43.905Z,10.90
2022-11-23T13:41:33.607Z,10.90
2022-11-23T13:44:14.821Z,10.90
2022-11-23T13:46:41.820Z,10.90
2022-11-23T13:49:42.480Z,10.80
2022-11-23T13:52:21.486Z,10.80
2022-11-23T13:55:10.087Z,10.80
2022-11-23T13:57:39.081Z,10.70
2022-11-23T14:00:43.872Z,10.60
2022-11-23T14:03:48.376Z,10.60
2022-11-23T14:06:34.294Z,10.60
2022-11-23T14:09:03.843Z,10.50
2022-11-23T14:11:50.511Z,10.50
2022-11-23T14:14:22.685Z,10.50
2022-11-23T14:17:31.076Z,10.40
2022-11-23T14:20:29.063Z,10.40
2022-11-23T14:23:01.741Z,10.30
2022-11-23T14:26:06.004Z,10.30
2022-11-23T14:28:54.638Z,10.30
2022-11-23T14:31:59.033Z,10.30
2022-11-23T14:34:37.936Z,10.30
2022-11-23T14:37:07.734Z,10.30
2022-11-23T14:39:38.516Z,10.30
2022-11-23T14:42:15.504Z,10.20
2022-11-23T14:44:42.884Z,10.20
2022-11-23T14:47:11.588Z,10.20
2022-11-23T14:49:49.578Z,10.20
2022-11-23T14:52:23.133Z,10.20
2022-11-23T14:54:55.404Z,10.20
2022-11-23T14:57:25.811Z,10.20
2022-11-23T14:59:59.012Z,10.20
2022-11-23T15:02:37.595Z,10.20
2022-11-23T15:05:28.250Z,10.30
2022-11-23T15:08:03.694Z,10.30
2022-11-23T15:10:42.687Z,10.30
2022-11-23T15:13:26.522Z,10.30
2022-11-23T15:15:58.113Z,10.20
2022-11-23T15:18:31.492Z,10.20
2022-11-23T15:21:27.324Z,10.10
2022-11-23T15:23:58.375Z,10.10
2022-11-23T15:26:47.917Z,10.10
2022-11-23T15:29:55.548Z,10.10
2022-11-23T15:32:34.761Z,10.10
2022-11-23T15:35:08.107Z,10.10
2022-11-23T15:37:48.889Z,10.10
2022-11-23T15:40:17.932Z,10.10
2022-11-23T15:42:46.840Z,10.10
2022-11-23T15:45:45.726Z,10.10
2022-11-23T15:48:17.085Z,10.10
2022-11-23T15:50:48.734Z,10.10
2022-11-23T15:53:15.486Z,10.10
2022-11-23T15:55:43.544Z,10.10
2022-11-23T15:58:15.209Z,10.00
2022-11-23T16:00:50.339Z,10.10
2022-11-23T16:03:35.696Z,10.00
2022-11-23T16:06:09.218Z,10.00
2022-11-23T16:08:37.232Z,9.90
2022-11-23T16:11:05.991Z,9.80
2022-11-23T16:13:39.685Z,9.80
2022-11-23T16:16:13.797Z,9.70
2022-11-23T16:18:51.989Z,9.60
2022-11-23T16:21:22.231Z,9.50
2022-11-23T16:23:55.571Z,9.40
2022-11-23T16:26:30.821Z,9.30
2022-11-23T16:29:03.566Z,9.30
2022-11-23T16:31:37.544Z,9.30
2022-11-23T16:34:15.672Z,9.20
2022-11-23T16:36:42.406Z,9.20
2022-11-23T16:39:09.163Z,9.20
2022-11-23T16:41:36.349Z,9.20
2022-11-23T16:44:05.914Z,9.00
2022-11-23T16:46:32.839Z,9.00
2022-11-23T16:49:02.044Z,9.00
2022-11-23T16:51:28.866Z,9.00
2022-11-23T16:54:16.228Z,8.90
2022-11-23T16:56:45.605Z,8.90
2022-11-23T16:59:18.442Z,8.90
2022-11-23T17:01:55.401Z,8.90
2022-11-23T17:04:24.523Z,8.80
2022-11-23T17:06:51.285Z,8.80
2022-11-23T17:09:20.296Z,8.80
2022-11-23T17:11:49.976Z,8.80
2022-11-23T17:14:19.401Z,8.80
2022-11-23T17:16:56.744Z,8.70
2022-11-23T17:19:23.526Z,8.70
2022-11-23T17:21:50.273Z,8.70
2022-11-23T17:24:19.349Z,8.70
2022-11-23T17:26:52.161Z,8.70
2022-11-23T17:29:20.199Z,8.70
2022-11-23T17:31:48.284Z,8.70
2022-11-23T17:34:16.140Z,8.60
2022-11-23T17:36:44.637Z,8.60
2022-11-23T17:39:28.388Z,8.60
2022-11-23T17:42:03.087Z,8.60
2022-11-23T17:44:31.400Z,8.60
2022-11-23T17:47:00.260Z,8.60
2022-11-23T17:49:28.321Z,8.60
2022-11-23T17:51:55.679Z,8.70
2022-11-23T17:54:23.526Z,8.70
2022-11-23T17:56:51.594Z,8.70
2022-11-23T17:59:19.301Z,8.70
2022-11-23T18:01:46.114Z,8.60
2022-11-23T18:04:15.100Z,8.60
2022-11-23T18:06:44.259Z,8.60
2022-11-23T18:09:11.995Z,8.60
2022-11-23T18:11:40.813Z,8.60
2022-11-23T18:14:07.523Z,8.60
2022-11-23T18:16:36.678Z,8.70
2022-11-23T18:19:04.527Z,8.70
2022-11-23T18:21:33.403Z,8.70
2022-11-23T18:24:04.356Z,8.70
2022-11-23T18:26:31.787Z,8.70
2022-11-23T18:29:00.690Z,8.70
2022-11-23T18:31:27.765Z,8.70
2022-11-23T18:33:54.745Z,8.70
2022-11-23T18:36:21.871Z,8.60
2022-11-23T18:38:48.929Z,8.70
2022-11-23T18:41:16.761Z,8.70
2022-11-23T18:43:46.289Z,8.70
2022-11-23T18:46:20.615Z,8.70
2022-11-23T18:48:48.859Z,8.70
2022-11-23T18:51:18.803Z,8.70
2022-11-23T18:53:47.830Z,8.70
2022-11-23T18:56:20.383Z,8.70
2022-11-23T18:58:47.585Z,8.70
2022-11-23T19:01:18.178Z,8.60
2022-11-23T19:03:46.797Z,8.60
2022-11-23T19:06:14.971Z,8.60
2022-11-23T19:08:48.783Z,8.60
2022-11-23T19:11:19.275Z,8.60
2022-11-23T19:13:52.032Z,8.60
2022-11-23T19:16:27.102Z,8.50
2022-11-23T19:19:01.848Z,8.40
2022-11-23T19:21:31.144Z,8.40
2022-11-23T19:23:59.295Z,8.40
2022-11-23T19:26:29.557Z,8.30
2022-11-23T19:28:59.399Z,8.30
2022-11-23T19:31:28.502Z,8.20
2022-11-23T19:34:00.823Z,8.20
2022-11-23T19:36:36.139Z,8.10
2022-11-23T19:39:06.470Z,8.00
2022-11-23T19:41:35.729Z,8.00
2022-11-23T19:44:02.560Z,8.00
2022-11-23T19:46:31.174Z,8.00
2022-11-23T19:48:58.975Z,7.90
2022-11-23T19:51:26.641Z,7.90
2022-11-23T19:53:56.860Z,7.90
2022-11-23T19:56:25.670Z,7.80
2022-11-23T19:58:56.887Z,7.70
2022-11-23T20:01:28.411Z,7.80
2022-11-23T20:04:07.993Z,7.80
2022-11-23T20:06:37.136Z,7.70
2022-11-23T20:09:12.932Z,7.60
2022-11-23T20:11:41.009Z,7.60
2022-11-23T20:14:10.264Z,7.60
2022-11-23T20:16:41.643Z,7.50
2022-11-23T20:19:11.098Z,7.50
2022-11-23T20:21:38.357Z,7.50
2022-11-23T20:24:11.521Z,7.40
2022-11-23T20:26:39.246Z,7.40
2022-11-23T20:29:07.117Z,7.40
2022-11-23T20:31:34.333Z,7.40
2022-11-23T20:34:04.134Z,7.30
2022-11-23T20:36:35.795Z,7.30
2022-11-23T20:39:05.331Z,7.30
2022-11-23T20:41:34.457Z,7.30
2022-11-23T20:44:06.926Z,7.20
2022-11-23T20:49:23.027Z,7.30
2022-11-23T20:51:51.590Z,7.30
2022-11-23T20:54:18.349Z,7.30
2022-11-23T20:56:45.064Z,7.30
2022-11-23T20:59:12.480Z,7.30
2022-11-23T21:01:41.610Z,7.20
2022-11-23T21:04:11.030Z,7.20
2022-11-23T21:06:39.914Z,7.20
2022-11-23T21:09:07.830Z,7.20
2022-11-23T21:11:52.996Z,7.20
2022-11-23T21:14:21.987Z,7.20
2022-11-23T21:16:56.102Z,7.20
2022-11-23T21:19:39.552Z,7.20
2022-11-23T21:22:11.091Z,7.10
2022-11-23T21:24:38.175Z,7.10
2022-11-23T21:27:08.475Z,7.10
2022-11-23T21:29:35.287Z,7.10
2022-11-23T21:32:02.043Z,7.00
2022-11-23T21:34:30.380Z,7.00
2022-11-23T21:36:59.860Z,7.00
2022-11-23T21:39:26.831Z,7.10
2022-11-23T21:41:56.588Z,7.20
2022-11-23T21:44:23.375Z,7.20
2022-11-23T21:46:52.702Z,7.20
2022-11-23T21:49:21.793Z,7.20
2022-11-23T21:51:48.995Z,7.20
2022-11-23T21:54:17.823Z,7.20
2022-11-23T21:56:46.071Z,7.10
2022-11-23T21:59:15.860Z,7.10
2022-11-23T22:01:43.367Z,7.20
2022-11-23T22:04:15.868Z,7.20
2022-11-23T22:06:45.055Z,7.30
2022-11-23T22:09:12.247Z,7.30
2022-11-23T22:11:41.548Z,7.30
2022-11-23T22:14:11.765Z,7.30
2022-11-23T22:16:54.082Z,7.30
2022-11-23T22:19:20.765Z,7.30
2022-11-23T22:21:50.140Z,7.40
2022-11-23T22:24:19.008Z,7.40
2022-11-23T22:26:48.701Z,7.40
2022-11-23T22:29:15.886Z,7.40
2022-11-23T22:31:43.682Z,7.50
2022-11-23T22:34:12.986Z,7.40
2022-11-23T22:36:42.907Z,7.40
2022-11-23T22:39:10.084Z,7.40
2022-11-23T22:41:37.979Z,7.30
2022-11-23T22:44:07.507Z,7.40
2022-11-23T22:46:36.981Z,7.30
2022-11-23T22:49:03.901Z,7.30
2022-11-23T22:51:30.749Z,7.20
2022-11-23T22:54:00.793Z,7.10
2022-11-23T22:56:27.991Z,7.10
2022-11-23T22:58:56.939Z,7.10
2022-11-23T23:01:28.617Z,7.10
2022-11-23T23:04:00.419Z,7.10
2022-11-23T23:06:33.484Z,7.10
2022-11-23T23:09:01.834Z,7.00
2022-11-23T23:11:30.634Z,7.00
2022-11-23T23:13:58.350Z,7.00
2022-11-23T23:16:28.619Z,7.00
2022-11-23T23:18:59.299Z,7.00
2022-11-23T23:21:27.397Z,7.00
2022-11-23T23:23:59.569Z,7.10
2022-11-23T23:26:29.420Z,7.00
2022-11-23T23:28:57.894Z,7.00
2022-11-23T23:31:25.632Z,7.00
2022-11-23T23:33:55.117Z,7.00
2022-11-23T23:36:23.565Z,7.00
2022-11-23T23:38:50.942Z,7.00
2022-11-23T23:41:19.850Z,7.00
2022-11-23T23:43:48.065Z,7.00
2022-11-23T23:46:15.373Z,7.00
2022-11-23T23:48:42.246Z,7.00
2022-11-23T23:51:11.392Z,7.00
2022-11-23T23:53:38.818Z,7.00
2022-11-23T23:56:22.308Z,7.00
2022-11-23T23:58:53.892Z,6.90
